Rockville, MO (64780)

9:17 PM CST on February 07, 2016 (GMT -0600)
BATES CO EMA | | Change Station
CLOSE
Current Station
Personal Weather Station
Location: Butler, MO
Elevation: 869 ft
Nearby Weather Stations
Active Advisory: Wind Advisory

Elev 869 ft 38.26 °N, 94.33 °W | Updated 3 minutes ago

Partly Cloudy
Partly Cloudy
40.5 °F
Feels Like 40 °F
N
0.0
Wind Variable Wind from WNW
Gusts 15.0 mph

Today
High -- | Low -- °F
--% Chance of Precip.
Yesterday
High -- | Low -- °F
Precip. -- in
Pressure 30.00 in
Visibility 10.0 miles
Clouds Scattered Clouds 5500 ft
Overcast 12000 ft
Windchill 40 °F
Dew Point 24 °F
Humidity 52%
Rainfall 0.00 in
Snow Depth Not available.
7:15 AM 5:45 PM
Waning Crescent, 0% visible
METAR KRCM 080255Z AUTO 28013G22KT 10SM SCT055 OVC120 03/M02 A3000 RMK AO2
Pressure 30.00 in
Visibility 10.0 miles
Clouds Scattered Clouds 5500 ft
Overcast 12000 ft
Windchill 40 °F
Dew Point 24 °F
Humidity 52%
Rainfall 0.00 in
Snow Depth Not available.
7:15 AM 5:45 PM
Waning Crescent, 0% visible
METAR KRCM 080255Z AUTO 28013G22KT 10SM SCT055 OVC120 03/M02 A3000 RMK AO2

10-Day Weather Forecast

Almanac

Astronomy

Feb. 07, 2016 Rise Set
Actual Time
Civil Twilight
Nautical Twilight
Astronomical Twilight
Moon
Length of Visible Light
Length of Day
Tomorrow will be .
, % of the Moon is Illuminated

Today's Extremes

State Highs State Lows

Community

WunderPhotos

Upload Photos

1,891,375 photos uploaded!

WunderBlog® & News

Nearby

Air Quality

  Air Quality AQ Index Pollutant
Not available.

Snow Depth

Station Depth Elevation

Earthquake Activity

City Distance Mag. Time & Date
Minimum magnitude displayed is 2.5.

Coastal Water Temperatures

Place Temperature

Stations

Nearby Weather Stations

Station Location Temp. Windchill Dew Point Humidity Wind Precip. Elev Updated Type
                   

Watches & Warnings

Wind Advisory
Issued: 2:42 PM CST Feb. 7, 2016 – National Weather Service

... Wind Advisory in effect from 8 am to 6 PM CST Monday...

The National Weather Service in Kansas City/Pleasant Hill has
issued a Wind Advisory... which is in effect from 8 am to 6 PM CST
Monday.

* Timing... Monday morning through Monday evening

* winds... sustained winds up to 30 mph and gusts to 45 mph.

* Impacts... strong Crosswinds on highways could make travel
difficult... particularly for high profile vehicles.

Precautionary/preparedness actions...

A Wind Advisory means that winds of 35 mph are expected. Winds
this strong can make driving difficult... especially for high
profile vehicles. Use extra caution.



Cdb